createdAt,value
2018-11-07T00:02:17.609Z,44.18
2018-11-07T00:04:53.248Z,39.80
2018-11-07T00:07:28.913Z,54.40
2018-11-07T00:10:04.823Z,40.35
2018-11-07T00:12:40.417Z,48.30
2018-11-07T00:15:16.468Z,46.58
2018-11-07T00:17:52.437Z,41.10
2018-11-07T00:20:28.327Z,39.88
2018-11-07T00:23:03.969Z,50.50
2018-11-07T00:25:39.443Z,49.88
2018-11-07T00:28:15.240Z,42.25
2018-11-07T00:30:50.608Z,41.55
2018-11-07T00:33:26.132Z,43.68
2018-11-07T00:36:01.494Z,40.75
2018-11-07T00:38:37.121Z,49.55
2018-11-07T00:41:12.566Z,43.17
2018-11-07T00:43:48.449Z,43.65
2018-11-07T00:46:23.876Z,43.38
2018-11-07T00:48:59.820Z,41.95
2018-11-07T00:51:35.281Z,43.85
2018-11-07T00:54:10.786Z,44.50
2018-11-07T00:56:46.058Z,50.90
2018-11-07T00:59:21.909Z,44.48
2018-11-07T01:01:57.389Z,44.63
2018-11-07T01:04:33.033Z,47.00
2018-11-07T01:07:08.526Z,46.10
2018-11-07T01:09:44.414Z,48.00
2018-11-07T01:12:19.798Z,46.77
2018-11-07T01:14:55.353Z,45.35
2018-11-07T01:17:30.930Z,47.10
2018-11-07T01:20:08.003Z,45.60
2018-11-07T01:22:43.492Z,46.37
2018-11-07T01:25:19.090Z,47.10
2018-11-07T01:27:54.429Z,48.98
2018-11-07T01:30:30.013Z,49.42
2018-11-07T01:33:05.301Z,48.33
2018-11-07T01:35:41.013Z,49.25
2018-11-07T01:38:16.229Z,45.05
2018-11-07T01:40:51.698Z,47.03
2018-11-07T01:43:27.149Z,45.73
2018-11-07T01:46:02.792Z,47.33
2018-11-07T01:48:38.421Z,45.20
2018-11-07T01:51:14.125Z,47.50
2018-11-07T01:53:49.503Z,50.55
2018-11-07T01:56:25.065Z,45.48
2018-11-07T01:59:00.653Z,46.05
2018-11-07T02:01:36.147Z,45.40
2018-11-07T02:04:11.501Z,45.95
2018-11-07T02:06:47.049Z,43.70
2018-11-07T02:09:22.446Z,45.95
2018-11-07T02:11:58.165Z,46.92
2018-11-07T02:14:33.444Z,47.00
2018-11-07T02:17:09.157Z,48.28
2018-11-07T02:19:44.610Z,48.45
2018-11-07T02:22:20.144Z,50.92
2018-11-07T02:24:55.495Z,48.10
2018-11-07T02:27:31.250Z,45.40
2018-11-07T02:30:10.874Z,46.50
2018-11-07T02:32:46.561Z,47.55
2018-11-07T02:35:21.833Z,49.25
2018-11-07T02:37:57.633Z,48.75
2018-11-07T02:40:33.208Z,48.13
2018-11-07T02:43:09.045Z,46.45
2018-11-07T02:45:44.505Z,45.90
2018-11-07T02:48:20.140Z,46.98
2018-11-07T02:50:55.603Z,48.52
2018-11-07T02:53:31.363Z,47.15
2018-11-07T02:56:06.709Z,48.35
2018-11-07T02:58:42.936Z,48.48
2018-11-07T03:01:18.472Z,45.90
2018-11-07T03:03:54.237Z,47.45
2018-11-07T03:06:29.605Z,49.27
2018-11-07T03:09:07.821Z,50.45
2018-11-07T03:11:43.146Z,50.98
2018-11-07T03:14:18.726Z,49.80
2018-11-07T03:16:54.261Z,47.78
2018-11-07T03:19:29.802Z,48.42
2018-11-07T03:22:05.506Z,52.17
2018-11-07T03:24:41.285Z,50.40
2018-11-07T03:27:16.593Z,50.73
2018-11-07T03:29:52.481Z,52.62
2018-11-07T03:32:27.903Z,53.80
2018-11-07T03:35:03.490Z,55.45
2018-11-07T03:37:38.961Z,57.25
2018-11-07T03:40:14.465Z,55.15
2018-11-07T03:42:49.683Z,55.15
2018-11-07T03:45:30.676Z,55.83
2018-11-07T03:48:06.165Z,52.73
2018-11-07T03:50:41.600Z,54.88
2018-11-07T03:53:17.004Z,53.15
2018-11-07T03:55:52.596Z,52.33
2018-11-07T03:58:28.353Z,56.40
2018-11-07T04:01:03.978Z,52.78
2018-11-07T04:03:39.540Z,58.68
2018-11-07T04:06:15.103Z,56.58
2018-11-07T04:08:50.335Z,57.25
2018-11-07T04:11:25.853Z,55.43
2018-11-07T04:14:01.283Z,54.25
2018-11-07T04:16:36.893Z,57.00
2018-11-07T04:19:12.125Z,57.88
2018-11-07T04:21:47.639Z,55.95
2018-11-07T04:24:23.803Z,57.53
2018-11-07T04:26:59.452Z,59.88
2018-11-07T04:29:34.908Z,59.15
2018-11-07T04:32:10.549Z,61.10
2018-11-07T04:34:46.013Z,60.88
2018-11-07T04:37:21.529Z,60.67
2018-11-07T04:39:57.012Z,58.70
2018-11-07T04:42:32.855Z,57.58
2018-11-07T04:45:08.669Z,56.20
2018-11-07T04:47:44.024Z,56.75
2018-11-07T04:50:19.264Z,57.98
2018-11-07T04:52:54.918Z,58.80
2018-11-07T04:55:30.486Z,58.02
2018-11-07T04:58:06.113Z,55.95
2018-11-07T05:00:41.656Z,60.05
2018-11-07T05:03:17.309Z,55.78
2018-11-07T05:05:53.194Z,55.90
2018-11-07T05:08:29.238Z,56.20
2018-11-07T05:11:04.536Z,56.95
2018-11-07T05:13:40.239Z,57.38
2018-11-07T05:16:15.485Z,60.90
2018-11-07T05:18:50.976Z,57.30
2018-11-07T05:21:26.484Z,56.60
2018-11-07T05:24:02.121Z,57.62
2018-11-07T05:26:37.473Z,57.03
2018-11-07T05:29:13.677Z,54.88
2018-11-07T05:31:48.978Z,57.35
2018-11-07T05:34:24.306Z,55.92
2018-11-07T05:36:59.541Z,57.08
2018-11-07T05:39:35.733Z,57.50
2018-11-07T05:42:11.025Z,61.75
2018-11-07T05:44:46.687Z,58.38
2018-11-07T05:47:22.034Z,55.95
2018-11-07T05:49:57.645Z,56.88
2018-11-07T05:52:33.148Z,54.90
2018-11-07T05:55:09.148Z,54.38
2018-11-07T05:57:44.530Z,55.83
2018-11-07T06:00:20.429Z,54.55
2018-11-07T06:02:55.665Z,53.20
2018-11-07T06:05:31.379Z,54.88
2018-11-07T06:08:06.746Z,56.20
2018-11-07T06:10:42.383Z,55.20
2018-11-07T06:13:17.684Z,55.70
2018-11-07T06:15:53.298Z,52.23
2018-11-07T06:18:28.610Z,53.75
2018-11-07T06:21:04.033Z,56.88
2018-11-07T06:23:39.496Z,54.65
2018-11-07T06:26:15.031Z,56.85
2018-11-07T06:28:50.453Z,53.28
2018-11-07T06:31:26.035Z,56.35
2018-11-07T06:34:01.443Z,53.20
2018-11-07T06:36:36.916Z,50.43
2018-11-07T06:39:12.656Z,48.02
2018-11-07T06:41:48.201Z,47.03
2018-11-07T06:44:23.771Z,47.90
2018-11-07T06:46:59.207Z,47.20
2018-11-07T06:49:34.442Z,48.75
2018-11-07T06:52:10.105Z,45.35
2018-11-07T06:54:45.521Z,44.70
2018-11-07T06:57:20.886Z,43.33
2018-11-07T06:59:56.373Z,44.40
2018-11-07T07:02:31.993Z,41.48
2018-11-07T07:05:07.780Z,40.35
2018-11-07T07:07:43.284Z,40.92
2018-11-07T07:10:19.018Z,40.00
2018-11-07T07:12:54.455Z,40.90
2018-11-07T07:15:29.734Z,40.98
2018-11-07T07:18:05.494Z,42.45
2018-11-07T07:20:40.857Z,39.60
2018-11-07T07:23:16.699Z,39.67
2018-11-07T07:25:52.110Z,39.75
2018-11-07T07:28:27.568Z,39.10
2018-11-07T07:31:03.044Z,38.70
2018-11-07T07:33:38.593Z,37.70
2018-11-07T07:36:14.184Z,37.42
2018-11-07T07:38:49.812Z,36.28
2018-11-07T07:41:25.227Z,38.98
2018-11-07T07:44:01.101Z,35.30
2018-11-07T07:46:36.479Z,35.70
2018-11-07T07:49:12.308Z,34.05
2018-11-07T07:51:47.740Z,35.58
2018-11-07T07:54:23.206Z,33.15
2018-11-07T07:56:58.575Z,32.38
2018-11-07T07:59:34.296Z,30.00
2018-11-07T08:02:09.635Z,30.48
2018-11-07T08:04:45.112Z,30.43
2018-11-07T08:07:20.640Z,31.35
2018-11-07T08:09:56.238Z,31.10
2018-11-07T08:12:31.733Z,32.03
2018-11-07T08:15:08.153Z,31.52
2018-11-07T08:17:44.173Z,30.48
2018-11-07T08:20:19.860Z,32.00
2018-11-07T08:22:55.281Z,30.70
2018-11-07T08:25:31.161Z,29.77
2018-11-07T08:28:07.116Z,29.45
2018-11-07T08:30:42.788Z,31.68
2018-11-07T08:33:18.149Z,32.10
2018-11-07T08:35:53.857Z,33.35
2018-11-07T08:38:29.165Z,30.55
2018-11-07T08:41:04.830Z,31.05
2018-11-07T08:43:40.356Z,30.97
2018-11-07T08:46:15.777Z,30.62
2018-11-07T08:48:51.185Z,29.82
2018-11-07T08:51:26.629Z,29.25
2018-11-07T08:54:02.046Z,28.75
2018-11-07T08:56:37.738Z,28.95
2018-11-07T08:59:13.256Z,29.30
2018-11-07T09:01:48.737Z,25.88
2018-11-07T09:04:24.196Z,29.12
2018-11-07T09:06:59.970Z,33.42
2018-11-07T09:09:35.307Z,29.18
2018-11-07T09:12:17.639Z,28.00
2018-11-07T09:14:52.981Z,31.00
2018-11-07T09:17:28.539Z,25.30
2018-11-07T09:20:04.027Z,27.25
2018-11-07T09:22:39.696Z,28.07
2018-11-07T09:25:15.885Z,26.77
2018-11-07T09:27:51.358Z,26.17
2018-11-07T09:30:26.726Z,25.55
2018-11-07T09:33:02.238Z,28.07
2018-11-07T09:35:37.595Z,25.82
2018-11-07T09:38:13.141Z,26.10
2018-11-07T09:40:48.494Z,25.97
2018-11-07T09:43:24.007Z,24.95
2018-11-07T09:45:59.532Z,26.57
2018-11-07T09:48:34.855Z,25.35
2018-11-07T09:51:10.465Z,26.87
2018-11-07T09:53:46.238Z,25.72
2018-11-07T09:56:21.732Z,25.88
2018-11-07T09:58:57.322Z,26.23
2018-11-07T10:01:32.661Z,26.45
2018-11-07T10:04:08.187Z,28.10
2018-11-07T10:06:43.580Z,26.40
2018-11-07T10:09:18.986Z,27.17
2018-11-07T10:11:54.469Z,26.75
2018-11-07T10:14:29.985Z,28.00
2018-11-07T10:17:05.240Z,27.58
2018-11-07T10:19:40.781Z,25.10
2018-11-07T10:22:16.304Z,25.82
2018-11-07T10:24:52.037Z,26.37
2018-11-07T10:27:27.960Z,25.40
2018-11-07T10:30:03.654Z,24.63
2018-11-07T10:32:38.733Z,24.60
2018-11-07T10:35:14.479Z,23.25
2018-11-07T10:37:50.035Z,23.70
2018-11-07T10:40:25.778Z,26.20
2018-11-07T10:43:01.029Z,24.00
2018-11-07T10:45:36.544Z,24.47
2018-11-07T10:48:11.796Z,22.58
2018-11-07T10:50:47.381Z,23.47
2018-11-07T10:53:23.023Z,25.10
2018-11-07T10:55:58.670Z,22.15
2018-11-07T10:58:34.192Z,22.90
2018-11-07T11:01:12.009Z,25.30
2018-11-07T11:03:47.377Z,23.42
2018-11-07T11:06:22.805Z,23.80
2018-11-07T11:08:58.149Z,20.45
2018-11-07T11:11:33.589Z,21.17
2018-11-07T11:14:09.191Z,20.75
2018-11-07T11:16:44.704Z,21.02
2018-11-07T11:19:20.331Z,23.05
2018-11-07T11:21:56.383Z,19.57
2018-11-07T11:24:31.793Z,22.93
2018-11-07T11:27:07.538Z,20.95
2018-11-07T11:29:42.938Z,22.07
2018-11-07T11:32:18.585Z,19.80
2018-11-07T11:34:54.003Z,19.45
2018-11-07T11:37:29.560Z,19.85
2018-11-07T11:40:06.355Z,20.00
2018-11-07T11:42:42.764Z,20.30
2018-11-07T11:45:18.323Z,18.57
2018-11-07T11:47:53.705Z,23.80
2018-11-07T11:50:29.205Z,20.52
2018-11-07T11:53:05.719Z,19.57
2018-11-07T11:55:41.043Z,18.87
2018-11-07T11:58:16.582Z,18.40
2018-11-07T12:00:52.071Z,18.42
2018-11-07T12:03:27.527Z,18.45
2018-11-07T12:06:03.055Z,17.82
2018-11-07T12:08:38.725Z,19.65
2018-11-07T12:11:14.213Z,17.52
2018-11-07T12:13:50.085Z,17.23
2018-11-07T12:16:25.605Z,17.48
2018-11-07T12:19:00.941Z,17.70
2018-11-07T12:21:36.408Z,21.50
2018-11-07T12:24:12.073Z,19.00
2018-11-07T12:26:47.609Z,19.67
2018-11-07T12:29:23.258Z,21.17
2018-11-07T12:31:58.729Z,17.80
2018-11-07T12:34:34.364Z,18.60
2018-11-07T12:37:09.951Z,20.10
2018-11-07T12:39:45.771Z,22.73
2018-11-07T12:42:20.990Z,18.10
2018-11-07T12:44:56.577Z,19.82
2018-11-07T12:47:32.076Z,19.17
2018-11-07T12:50:10.966Z,18.35
2018-11-07T12:52:46.861Z,20.77
2018-11-07T12:55:22.905Z,19.02
2018-11-07T12:57:58.292Z,19.37
2018-11-07T13:00:33.908Z,17.00
2018-11-07T13:03:09.293Z,19.85
2018-11-07T13:05:44.952Z,17.40
2018-11-07T13:08:20.285Z,18.52
2018-11-07T13:10:55.918Z,16.23
2018-11-07T13:13:31.377Z,18.25
2018-11-07T13:16:07.022Z,19.70
2018-11-07T13:18:42.433Z,21.33
2018-11-07T13:21:18.128Z,16.15
2018-11-07T13:23:53.410Z,20.50
2018-11-07T13:26:29.122Z,18.20
2018-11-07T13:29:04.522Z,15.65
2018-11-07T13:31:40.205Z,15.00
2018-11-07T13:34:15.674Z,16.10
2018-11-07T13:36:51.312Z,13.30
2018-11-07T13:39:26.534Z,14.98
2018-11-07T13:42:02.113Z,12.15
2018-11-07T13:44:37.633Z,14.93
2018-11-07T13:47:13.282Z,11.40
2018-11-07T13:49:48.753Z,11.57
2018-11-07T13:52:24.381Z,8.88
2018-11-07T13:54:59.602Z,10.38
2018-11-07T13:57:35.201Z,7.28
2018-11-07T14:00:18.277Z,7.30
2018-11-07T14:02:54.314Z,8.13
2018-11-07T14:05:29.874Z,6.55
2018-11-07T14:08:05.574Z,6.90
2018-11-07T14:10:40.888Z,5.40
2018-11-07T14:13:16.445Z,5.83
2018-11-07T14:15:52.049Z,5.12
2018-11-07T14:18:27.649Z,6.30
2018-11-07T14:21:02.910Z,5.60
2018-11-07T14:23:38.553Z,5.67
2018-11-07T14:26:14.073Z,5.47
2018-11-07T14:28:49.863Z,5.15
2018-11-07T14:31:25.558Z,5.83
2018-11-07T14:34:01.656Z,5.80
2018-11-07T14:36:36.985Z,5.42
2018-11-07T14:39:12.709Z,5.03
2018-11-07T14:41:47.987Z,4.85
2018-11-07T14:44:23.561Z,5.20
2018-11-07T14:46:58.986Z,4.42
2018-11-07T14:49:34.530Z,4.87
2018-11-07T14:52:10.030Z,5.28
2018-11-07T14:54:45.919Z,5.65
2018-11-07T14:57:27.997Z,6.12
2018-11-07T15:00:04.093Z,6.62
2018-11-07T15:02:39.856Z,7.55
2018-11-07T15:05:16.260Z,8.63
2018-11-07T15:07:51.585Z,6.87
2018-11-07T15:10:27.076Z,6.03
2018-11-07T15:13:02.421Z,6.45
2018-11-07T15:15:37.987Z,7.25
2018-11-07T15:18:13.316Z,6.85
2018-11-07T15:20:48.804Z,6.20
2018-11-07T15:23:24.297Z,6.22
2018-11-07T15:25:59.940Z,6.83
2018-11-07T15:28:35.497Z,6.47
2018-11-07T15:31:11.042Z,6.65
2018-11-07T15:33:46.348Z,6.10
2018-11-07T15:36:21.934Z,6.58
2018-11-07T15:38:57.336Z,7.10
2018-11-07T15:41:32.895Z,6.87
2018-11-07T15:44:08.217Z,6.70
2018-11-07T15:46:43.729Z,6.45
2018-11-07T15:49:19.479Z,6.97
2018-11-07T15:51:55.925Z,6.25
2018-11-07T15:54:31.375Z,7.67
2018-11-07T15:57:07.155Z,7.65
2018-11-07T15:59:42.939Z,6.97
2018-11-07T16:02:18.629Z,7.15
2018-11-07T16:04:53.944Z,8.13
2018-11-07T16:07:29.377Z,7.37
2018-11-07T16:10:05.881Z,8.13
2018-11-07T16:12:41.870Z,9.13
2018-11-07T16:15:19.145Z,7.20
2018-11-07T16:17:54.606Z,8.68
2018-11-07T16:20:30.393Z,7.70
2018-11-07T16:23:06.393Z,8.15
2018-11-07T16:25:41.837Z,7.92
2018-11-07T16:28:17.341Z,7.47
2018-11-07T16:30:52.825Z,15.85
2018-11-07T16:33:28.041Z,8.10
2018-11-07T16:36:03.755Z,8.15
2018-11-07T16:38:39.384Z,9.05
2018-11-07T16:41:15.234Z,9.05
2018-11-07T16:43:50.529Z,8.20
2018-11-07T16:46:26.121Z,9.73
2018-11-07T16:49:01.491Z,9.83
2018-11-07T16:51:37.222Z,9.98
2018-11-07T16:54:17.464Z,8.93
2018-11-07T16:56:52.947Z,8.18
2018-11-07T16:59:28.417Z,9.25
2018-11-07T17:02:04.132Z,9.05
2018-11-07T17:04:39.978Z,10.10
2018-11-07T17:07:15.922Z,9.95
2018-11-07T17:09:51.389Z,11.08
2018-11-07T17:12:27.046Z,10.95
2018-11-07T17:15:02.386Z,9.95
2018-11-07T17:17:38.217Z,9.93
2018-11-07T17:20:14.807Z,10.35
2018-11-07T17:22:50.366Z,10.90
2018-11-07T17:25:25.810Z,10.03
2018-11-07T17:28:01.456Z,11.85
2018-11-07T17:30:36.809Z,11.20
2018-11-07T17:33:12.541Z,10.85
2018-11-07T17:35:48.017Z,12.18
2018-11-07T17:38:23.596Z,12.23
2018-11-07T17:40:58.841Z,11.68
2018-11-07T17:43:34.763Z,12.47
2018-11-07T17:46:10.308Z,11.48
2018-11-07T17:48:46.061Z,11.45
2018-11-07T17:51:21.485Z,11.33
2018-11-07T17:53:57.164Z,12.75
2018-11-07T17:56:32.586Z,11.68
2018-11-07T17:59:08.637Z,11.12
2018-11-07T18:01:44.253Z,14.15
2018-11-07T18:04:19.966Z,11.80
2018-11-07T18:06:55.325Z,14.58
2018-11-07T18:09:31.100Z,13.48
2018-11-07T18:12:06.837Z,12.98
2018-11-07T18:14:42.567Z,13.50
2018-11-07T18:17:18.068Z,13.08
2018-11-07T18:19:53.525Z,15.55
2018-11-07T18:22:28.981Z,15.50
2018-11-07T18:25:04.726Z,14.50
2018-11-07T18:27:40.364Z,14.68
2018-11-07T18:30:17.097Z,13.62
2018-11-07T18:32:52.462Z,14.47
2018-11-07T18:35:28.031Z,20.52
2018-11-07T18:38:03.452Z,15.13
2018-11-07T18:40:39.075Z,14.30
2018-11-07T18:43:14.613Z,21.37
2018-11-07T18:45:50.134Z,14.75
2018-11-07T18:48:25.700Z,15.65
2018-11-07T18:51:01.410Z,14.58
2018-11-07T18:53:36.657Z,15.78
2018-11-07T18:56:12.365Z,15.85
2018-11-07T18:58:48.002Z,14.95
2018-11-07T19:01:23.541Z,19.15
2018-11-07T19:03:59.183Z,15.80
2018-11-07T19:06:34.778Z,26.15
2018-11-07T19:09:10.318Z,14.13
2018-11-07T19:11:45.918Z,15.35
2018-11-07T19:14:21.352Z,15.08
2018-11-07T19:16:56.854Z,16.40
2018-11-07T19:19:32.156Z,20.32
2018-11-07T19:22:07.835Z,14.28
2018-11-07T19:24:43.242Z,16.32
2018-11-07T19:27:19.203Z,16.32
2018-11-07T19:29:54.577Z,14.93
2018-11-07T19:32:30.035Z,14.75
2018-11-07T19:35:07.463Z,14.73
2018-11-07T19:37:43.536Z,15.38
2018-11-07T19:40:20.422Z,15.30
2018-11-07T19:42:55.965Z,18.55
2018-11-07T19:45:31.369Z,14.60
2018-11-07T19:48:07.392Z,15.85
2018-11-07T19:50:43.205Z,15.13
2018-11-07T19:53:18.933Z,13.90
2018-11-07T19:55:54.567Z,19.05
2018-11-07T19:58:30.331Z,16.05
2018-11-07T20:01:06.401Z,14.58
2018-11-07T20:03:42.425Z,16.75
2018-11-07T20:06:18.497Z,17.55
2018-11-07T20:08:54.474Z,14.40
2018-11-07T20:11:30.292Z,13.45
2018-11-07T20:14:06.705Z,14.20
2018-11-07T20:16:42.446Z,13.30
2018-11-07T20:19:18.250Z,13.62
2018-11-07T20:21:54.123Z,13.45
2018-11-07T20:24:30.700Z,16.00
2018-11-07T20:27:06.545Z,13.28
2018-11-07T20:29:42.074Z,12.45
2018-11-07T20:32:17.917Z,14.05
2018-11-07T20:34:53.604Z,11.85
2018-11-07T20:37:29.205Z,15.43
2018-11-07T20:40:06.131Z,16.15
2018-11-07T20:42:41.972Z,11.80
2018-11-07T20:45:18.269Z,15.28
2018-11-07T20:47:53.889Z,13.38
2018-11-07T20:50:29.765Z,17.50
2018-11-07T20:53:05.260Z,12.63
2018-11-07T20:55:41.158Z,14.23
2018-11-07T20:58:16.677Z,15.38
2018-11-07T21:00:52.627Z,12.13
2018-11-07T21:03:28.266Z,15.10
2018-11-07T21:06:04.261Z,12.23
2018-11-07T21:08:39.940Z,12.58
2018-11-07T21:11:15.746Z,12.23
2018-11-07T21:13:51.213Z,14.95
2018-11-07T21:16:27.025Z,16.67
2018-11-07T21:19:02.800Z,18.40
2018-11-07T21:21:38.477Z,12.95
2018-11-07T21:24:13.948Z,11.65
2018-11-07T21:26:49.513Z,13.15
2018-11-07T21:29:24.821Z,15.80
2018-11-07T21:32:00.463Z,9.68
2018-11-07T21:34:35.969Z,24.60
2018-11-07T21:37:11.537Z,11.90
2018-11-07T21:39:47.050Z,10.15
2018-11-07T21:42:22.628Z,9.28
2018-11-07T21:44:57.908Z,11.95
2018-11-07T21:47:33.739Z,9.60
2018-11-07T21:50:10.986Z,11.35
2018-11-07T21:52:46.429Z,13.35
2018-11-07T21:55:21.917Z,8.75
2018-11-07T21:57:57.400Z,20.17
2018-11-07T22:00:32.616Z,10.13
2018-11-07T22:03:08.060Z,9.90
2018-11-07T22:05:43.751Z,11.22
2018-11-07T22:08:19.441Z,9.10
2018-11-07T22:10:54.780Z,12.45
2018-11-07T22:13:30.430Z,8.73
2018-11-07T22:16:06.464Z,32.55
2018-11-07T22:18:42.241Z,37.03
2018-11-07T22:21:18.381Z,20.23
2018-11-07T22:23:54.009Z,9.40
2018-11-07T22:26:29.315Z,8.70
2018-11-07T22:29:04.841Z,13.62
2018-11-07T22:31:40.476Z,17.65
2018-11-07T22:34:16.053Z,9.98
2018-11-07T22:36:51.521Z,13.22
2018-11-07T22:39:27.337Z,9.10
2018-11-07T22:42:02.836Z,16.60
2018-11-07T22:44:38.377Z,11.00
2018-11-07T22:47:13.877Z,16.62
2018-11-07T22:49:49.441Z,11.60
2018-11-07T22:52:24.678Z,8.65
2018-11-07T22:55:00.192Z,14.90
2018-11-07T22:57:35.422Z,13.30
2018-11-07T23:00:20.934Z,11.78
2018-11-07T23:02:56.796Z,10.82
2018-11-07T23:05:32.502Z,12.70
2018-11-07T23:08:08.045Z,8.35
2018-11-07T23:10:43.538Z,13.65
2018-11-07T23:13:19.037Z,39.15
2018-11-07T23:15:54.564Z,24.35
2018-11-07T23:18:30.073Z,23.57
2018-11-07T23:21:05.907Z,10.58
2018-11-07T23:23:41.286Z,11.15
2018-11-07T23:26:16.717Z,11.30
2018-11-07T23:28:52.166Z,8.20
2018-11-07T23:31:28.318Z,14.10
2018-11-07T23:34:03.647Z,9.00
2018-11-07T23:36:39.410Z,24.75
2018-11-07T23:39:15.009Z,8.85
2018-11-07T23:41:50.445Z,14.98
2018-11-07T23:44:25.845Z,8.30
2018-11-07T23:47:01.610Z,8.70
2018-11-07T23:49:37.055Z,7.12
2018-11-07T23:52:16.678Z,28.83
2018-11-07T23:54:52.066Z,19.80
2018-11-07T23:57:28.267Z,14.65
